sensor_id;sensor_type;location;lat;lon;timestamp;P1;durP1;ratioP1;P2;durP2;ratioP2
75135;SDS011;63707;52.212;9.540;2024-01-11T00:00:29;105.93;;;34.28;;
75135;SDS011;63707;52.212;9.540;2024-01-11T00:02:54;105.97;;;34.80;;
75135;SDS011;63707;52.212;9.540;2024-01-11T00:05:20;115.82;;;37.80;;
75135;SDS011;63707;52.212;9.540;2024-01-11T00:07:47;113.00;;;37.83;;
75135;SDS011;63707;52.212;9.540;2024-01-11T00:10:13;118.20;;;36.60;;
75135;SDS011;63707;52.212;9.540;2024-01-11T00:12:39;112.10;;;38.50;;
75135;SDS011;63707;52.212;9.540;2024-01-11T00:15:05;106.95;;;37.90;;
75135;SDS011;63707;52.212;9.540;2024-01-11T00:17:31;114.15;;;38.42;;
75135;SDS011;63707;52.212;9.540;2024-01-11T00:19:56;116.55;;;36.50;;
75135;SDS011;63707;52.212;9.540;2024-01-11T00:22:22;109.22;;;36.30;;
75135;SDS011;63707;52.212;9.540;2024-01-11T00:24:49;118.78;;;38.45;;
75135;SDS011;63707;52.212;9.540;2024-01-11T00:27:14;118.88;;;37.72;;
75135;SDS011;63707;52.212;9.540;2024-01-11T00:29:40;124.63;;;38.75;;
75135;SDS011;63707;52.212;9.540;2024-01-11T00:32:05;113.05;;;36.75;;
75135;SDS011;63707;52.212;9.540;2024-01-11T00:34:31;112.15;;;36.63;;
75135;SDS011;63707;52.212;9.540;2024-01-11T00:36:56;115.00;;;36.65;;
75135;SDS011;63707;52.212;9.540;2024-01-11T00:39:22;112.80;;;35.47;;
75135;SDS011;63707;52.212;9.540;2024-01-11T00:41:49;101.72;;;33.22;;
75135;SDS011;63707;52.212;9.540;2024-01-11T00:44:16;101.38;;;34.05;;
75135;SDS011;63707;52.212;9.540;2024-01-11T00:46:41;109.53;;;36.00;;
75135;SDS011;63707;52.212;9.540;2024-01-11T00:49:07;106.35;;;35.20;;
75135;SDS011;63707;52.212;9.540;2024-01-11T00:51:32;106.68;;;34.38;;
75135;SDS011;63707;52.212;9.540;2024-01-11T00:53:58;109.47;;;36.45;;
75135;SDS011;63707;52.212;9.540;2024-01-11T00:56:23;117.18;;;36.58;;
75135;SDS011;63707;52.212;9.540;2024-01-11T00:58:50;110.55;;;33.50;;
75135;SDS011;63707;52.212;9.540;2024-01-11T01:01:15;104.20;;;34.38;;
75135;SDS011;63707;52.212;9.540;2024-01-11T01:03:41;91.25;;;32.75;;
75135;SDS011;63707;52.212;9.540;2024-01-11T01:06:07;115.15;;;35.15;;
75135;SDS011;63707;52.212;9.540;2024-01-11T01:08:34;109.32;;;35.47;;
75135;SDS011;63707;52.212;9.540;2024-01-11T01:11:00;103.72;;;33.33;;
75135;SDS011;63707;52.212;9.540;2024-01-11T01:13:25;107.82;;;34.40;;
75135;SDS011;63707;52.212;9.540;2024-01-11T01:15:52;95.32;;;31.63;;
75135;SDS011;63707;52.212;9.540;2024-01-11T01:18:18;98.35;;;33.83;;
75135;SDS011;63707;52.212;9.540;2024-01-11T01:20:43;103.80;;;34.38;;
75135;SDS011;63707;52.212;9.540;2024-01-11T01:23:09;109.80;;;33.80;;
75135;SDS011;63707;52.212;9.540;2024-01-11T01:25:34;99.18;;;34.30;;
75135;SDS011;63707;52.212;9.540;2024-01-11T01:27:59;107.57;;;34.13;;
75135;SDS011;63707;52.212;9.540;2024-01-11T01:30:26;104.88;;;33.63;;
75135;SDS011;63707;52.212;9.540;2024-01-11T01:32:53;107.47;;;33.95;;
75135;SDS011;63707;52.212;9.540;2024-01-11T01:35:18;96.13;;;33.92;;
75135;SDS011;63707;52.212;9.540;2024-01-11T01:37:44;97.53;;;32.58;;
75135;SDS011;63707;52.212;9.540;2024-01-11T01:40:09;106.93;;;34.90;;
75135;SDS011;63707;52.212;9.540;2024-01-11T01:42:36;104.45;;;32.28;;
75135;SDS011;63707;52.212;9.540;2024-01-11T01:45:06;107.68;;;33.75;;
75135;SDS011;63707;52.212;9.540;2024-01-11T01:47:32;102.00;;;35.58;;
75135;SDS011;63707;52.212;9.540;2024-01-11T01:49:59;110.22;;;33.75;;
75135;SDS011;63707;52.212;9.540;2024-01-11T01:52:25;109.15;;;34.35;;
75135;SDS011;63707;52.212;9.540;2024-01-11T01:54:50;118.25;;;36.63;;
75135;SDS011;63707;52.212;9.540;2024-01-11T01:57:16;108.88;;;35.42;;
75135;SDS011;63707;52.212;9.540;2024-01-11T01:59:44;119.93;;;36.63;;
75135;SDS011;63707;52.212;9.540;2024-01-11T02:02:11;106.63;;;33.40;;
75135;SDS011;63707;52.212;9.540;2024-01-11T02:04:37;109.03;;;33.35;;
75135;SDS011;63707;52.212;9.540;2024-01-11T02:07:04;117.38;;;37.40;;
75135;SDS011;63707;52.212;9.540;2024-01-11T02:09:31;117.28;;;38.53;;
75135;SDS011;63707;52.212;9.540;2024-01-11T02:11:58;112.80;;;35.88;;
75135;SDS011;63707;52.212;9.540;2024-01-11T02:14:25;120.30;;;37.40;;
75135;SDS011;63707;52.212;9.540;2024-01-11T02:16:51;117.63;;;37.42;;
75135;SDS011;63707;52.212;9.540;2024-01-11T02:19:17;117.70;;;38.47;;
75135;SDS011;63707;52.212;9.540;2024-01-11T02:21:44;121.93;;;37.83;;
75135;SDS011;63707;52.212;9.540;2024-01-11T02:24:13;110.40;;;36.35;;
75135;SDS011;63707;52.212;9.540;2024-01-11T02:26:52;108.25;;;35.92;;
75135;SDS011;63707;52.212;9.540;2024-01-11T02:29:23;116.07;;;37.33;;
75135;SDS011;63707;52.212;9.540;2024-01-11T02:31:49;111.90;;;36.28;;
75135;SDS011;63707;52.212;9.540;2024-01-11T02:34:15;123.00;;;37.67;;
75135;SDS011;63707;52.212;9.540;2024-01-11T02:36:40;131.70;;;39.03;;
75135;SDS011;63707;52.212;9.540;2024-01-11T02:39:06;123.03;;;38.42;;
75135;SDS011;63707;52.212;9.540;2024-01-11T02:41:34;129.77;;;38.50;;
75135;SDS011;63707;52.212;9.540;2024-01-11T02:44:00;125.07;;;38.00;;
75135;SDS011;63707;52.212;9.540;2024-01-11T02:46:26;111.65;;;35.50;;
75135;SDS011;63707;52.212;9.540;2024-01-11T02:48:52;111.72;;;37.08;;
75135;SDS011;63707;52.212;9.540;2024-01-11T02:51:17;108.95;;;35.53;;
75135;SDS011;63707;52.212;9.540;2024-01-11T02:53:43;119.40;;;38.22;;
75135;SDS011;63707;52.212;9.540;2024-01-11T02:56:08;113.10;;;35.63;;
75135;SDS011;63707;52.212;9.540;2024-01-11T02:58:35;120.25;;;38.25;;
75135;SDS011;63707;52.212;9.540;2024-01-11T03:01:00;120.50;;;38.38;;
75135;SDS011;63707;52.212;9.540;2024-01-11T03:03:26;118.60;;;37.55;;
75135;SDS011;63707;52.212;9.540;2024-01-11T03:05:52;112.88;;;37.22;;
75135;SDS011;63707;52.212;9.540;2024-01-11T03:08:18;117.88;;;37.25;;
75135;SDS011;63707;52.212;9.540;2024-01-11T03:10:43;118.97;;;35.92;;
75135;SDS011;63707;52.212;9.540;2024-01-11T03:13:09;117.78;;;37.10;;
75135;SDS011;63707;52.212;9.540;2024-01-11T03:15:36;117.40;;;36.53;;
75135;SDS011;63707;52.212;9.540;2024-01-11T03:18:01;114.57;;;36.35;;
75135;SDS011;63707;52.212;9.540;2024-01-11T03:20:27;116.35;;;37.80;;
75135;SDS011;63707;52.212;9.540;2024-01-11T03:22:52;112.40;;;37.83;;
75135;SDS011;63707;52.212;9.540;2024-01-11T03:25:18;121.00;;;38.97;;
75135;SDS011;63707;52.212;9.540;2024-01-11T03:27:43;119.05;;;39.22;;
75135;SDS011;63707;52.212;9.540;2024-01-11T03:30:09;115.97;;;35.53;;
75135;SDS011;63707;52.212;9.540;2024-01-11T03:32:36;122.70;;;37.88;;
75135;SDS011;63707;52.212;9.540;2024-01-11T03:35:04;110.45;;;37.33;;
75135;SDS011;63707;52.212;9.540;2024-01-11T03:37:30;116.82;;;38.25;;
75135;SDS011;63707;52.212;9.540;2024-01-11T03:39:55;110.72;;;36.50;;
75135;SDS011;63707;52.212;9.540;2024-01-11T03:42:21;105.47;;;35.30;;
75135;SDS011;63707;52.212;9.540;2024-01-11T03:44:46;117.93;;;37.10;;
75135;SDS011;63707;52.212;9.540;2024-01-11T03:47:12;121.88;;;38.17;;
75135;SDS011;63707;52.212;9.540;2024-01-11T03:49:38;115.38;;;36.85;;
75135;SDS011;63707;52.212;9.540;2024-01-11T03:52:04;116.97;;;35.95;;
75135;SDS011;63707;52.212;9.540;2024-01-11T03:54:31;113.63;;;36.20;;
75135;SDS011;63707;52.212;9.540;2024-01-11T03:56:56;105.72;;;34.78;;
75135;SDS011;63707;52.212;9.540;2024-01-11T03:59:22;112.05;;;36.85;;
75135;SDS011;63707;52.212;9.540;2024-01-11T04:01:47;107.80;;;34.25;;
75135;SDS011;63707;52.212;9.540;2024-01-11T04:04:13;101.55;;;32.33;;
75135;SDS011;63707;52.212;9.540;2024-01-11T04:06:40;106.63;;;33.97;;
75135;SDS011;63707;52.212;9.540;2024-01-11T04:09:06;108.68;;;34.38;;
75135;SDS011;63707;52.212;9.540;2024-01-11T04:11:31;100.25;;;32.45;;
75135;SDS011;63707;52.212;9.540;2024-01-11T04:13:57;102.18;;;32.35;;
75135;SDS011;63707;52.212;9.540;2024-01-11T04:16:22;102.03;;;34.47;;
75135;SDS011;63707;52.212;9.540;2024-01-11T04:18:48;101.45;;;32.63;;
75135;SDS011;63707;52.212;9.540;2024-01-11T04:21:20;92.25;;;32.10;;
75135;SDS011;63707;52.212;9.540;2024-01-11T04:23:47;101.45;;;32.10;;
75135;SDS011;63707;52.212;9.540;2024-01-11T04:26:13;102.32;;;32.63;;
75135;SDS011;63707;52.212;9.540;2024-01-11T04:28:38;99.68;;;31.27;;
75135;SDS011;63707;52.212;9.540;2024-01-11T04:31:04;85.40;;;27.95;;
75135;SDS011;63707;52.212;9.540;2024-01-11T04:33:29;83.85;;;29.20;;
75135;SDS011;63707;52.212;9.540;2024-01-11T04:35:55;79.10;;;25.52;;
75135;SDS011;63707;52.212;9.540;2024-01-11T04:38:20;74.50;;;25.55;;
75135;SDS011;63707;52.212;9.540;2024-01-11T04:40:47;74.38;;;24.75;;
75135;SDS011;63707;52.212;9.540;2024-01-11T04:43:13;75.85;;;23.23;;
75135;SDS011;63707;52.212;9.540;2024-01-11T04:45:38;91.88;;;28.90;;
75135;SDS011;63707;52.212;9.540;2024-01-11T04:48:04;80.43;;;26.92;;
75135;SDS011;63707;52.212;9.540;2024-01-11T04:50:30;80.97;;;26.52;;
75135;SDS011;63707;52.212;9.540;2024-01-11T04:52:55;86.50;;;27.10;;
75135;SDS011;63707;52.212;9.540;2024-01-11T04:55:21;89.93;;;28.40;;
75135;SDS011;63707;52.212;9.540;2024-01-11T04:57:48;89.07;;;28.80;;
75135;SDS011;63707;52.212;9.540;2024-01-11T05:00:13;83.25;;;26.30;;
75135;SDS011;63707;52.212;9.540;2024-01-11T05:02:39;96.85;;;31.27;;
75135;SDS011;63707;52.212;9.540;2024-01-11T05:05:05;87.22;;;29.60;;
75135;SDS011;63707;52.212;9.540;2024-01-11T05:07:31;94.53;;;30.45;;
75135;SDS011;63707;52.212;9.540;2024-01-11T05:09:56;97.38;;;31.58;;
75135;SDS011;63707;52.212;9.540;2024-01-11T05:12:22;105.93;;;33.58;;
75135;SDS011;63707;52.212;9.540;2024-01-11T05:14:49;95.53;;;30.40;;
75135;SDS011;63707;52.212;9.540;2024-01-11T05:17:14;83.40;;;28.70;;
75135;SDS011;63707;52.212;9.540;2024-01-11T05:19:40;96.80;;;31.35;;
75135;SDS011;63707;52.212;9.540;2024-01-11T05:22:05;88.20;;;30.60;;
75135;SDS011;63707;52.212;9.540;2024-01-11T05:24:31;86.85;;;29.27;;
75135;SDS011;63707;52.212;9.540;2024-01-11T05:26:56;89.63;;;28.98;;
75135;SDS011;63707;52.212;9.540;2024-01-11T05:29:24;80.97;;;28.08;;
75135;SDS011;63707;52.212;9.540;2024-01-11T05:31:51;85.97;;;27.25;;
75135;SDS011;63707;52.212;9.540;2024-01-11T05:34:16;81.22;;;26.55;;
75135;SDS011;63707;52.212;9.540;2024-01-11T05:36:41;83.28;;;26.42;;
75135;SDS011;63707;52.212;9.540;2024-01-11T05:39:07;81.25;;;27.15;;
75135;SDS011;63707;52.212;9.540;2024-01-11T05:41:32;84.03;;;27.63;;
75135;SDS011;63707;52.212;9.540;2024-01-11T05:43:58;73.90;;;25.58;;
75135;SDS011;63707;52.212;9.540;2024-01-11T05:46:23;80.55;;;25.30;;
75135;SDS011;63707;52.212;9.540;2024-01-11T05:48:50;74.28;;;23.98;;
75135;SDS011;63707;52.212;9.540;2024-01-11T05:51:16;80.78;;;25.13;;
75135;SDS011;63707;52.212;9.540;2024-01-11T05:53:41;81.85;;;27.17;;
75135;SDS011;63707;52.212;9.540;2024-01-11T05:56:07;77.82;;;27.33;;
75135;SDS011;63707;52.212;9.540;2024-01-11T05:58:33;92.22;;;28.45;;
75135;SDS011;63707;52.212;9.540;2024-01-11T06:00:59;97.40;;;32.13;;
75135;SDS011;63707;52.212;9.540;2024-01-11T06:03:24;90.75;;;30.05;;
75135;SDS011;63707;52.212;9.540;2024-01-11T06:05:51;98.78;;;31.70;;
75135;SDS011;63707;52.212;9.540;2024-01-11T06:08:16;111.03;;;33.83;;
75135;SDS011;63707;52.212;9.540;2024-01-11T06:10:42;95.05;;;31.45;;
75135;SDS011;63707;52.212;9.540;2024-01-11T06:13:07;90.07;;;28.77;;
75135;SDS011;63707;52.212;9.540;2024-01-11T06:15:34;85.78;;;29.58;;
75135;SDS011;63707;52.212;9.540;2024-01-11T06:18:00;85.40;;;29.15;;
75135;SDS011;63707;52.212;9.540;2024-01-11T06:20:25;80.28;;;27.35;;
75135;SDS011;63707;52.212;9.540;2024-01-11T06:22:52;99.20;;;30.13;;
75135;SDS011;63707;52.212;9.540;2024-01-11T06:25:18;87.47;;;28.45;;
75135;SDS011;63707;52.212;9.540;2024-01-11T06:27:43;97.95;;;30.67;;
75135;SDS011;63707;52.212;9.540;2024-01-11T06:30:09;90.57;;;28.83;;
75135;SDS011;63707;52.212;9.540;2024-01-11T06:32:35;88.88;;;28.42;;
75135;SDS011;63707;52.212;9.540;2024-01-11T06:35:01;89.07;;;31.00;;
75135;SDS011;63707;52.212;9.540;2024-01-11T06:37:27;95.10;;;29.50;;
75135;SDS011;63707;52.212;9.540;2024-01-11T06:39:54;91.55;;;30.13;;
75135;SDS011;63707;52.212;9.540;2024-01-11T06:42:20;87.78;;;29.38;;
75135;SDS011;63707;52.212;9.540;2024-01-11T06:44:45;90.45;;;30.60;;
75135;SDS011;63707;52.212;9.540;2024-01-11T06:47:11;92.60;;;29.30;;
75135;SDS011;63707;52.212;9.540;2024-01-11T06:49:38;102.28;;;34.40;;
75135;SDS011;63707;52.212;9.540;2024-01-11T06:52:04;105.22;;;32.58;;
75135;SDS011;63707;52.212;9.540;2024-01-11T06:54:30;97.97;;;32.83;;
75135;SDS011;63707;52.212;9.540;2024-01-11T06:56:58;87.68;;;29.23;;
75135;SDS011;63707;52.212;9.540;2024-01-11T06:59:24;97.45;;;31.30;;
75135;SDS011;63707;52.212;9.540;2024-01-11T07:01:49;86.00;;;29.80;;
75135;SDS011;63707;52.212;9.540;2024-01-11T07:04:15;85.75;;;28.83;;
75135;SDS011;63707;52.212;9.540;2024-01-11T07:06:40;101.18;;;35.58;;
75135;SDS011;63707;52.212;9.540;2024-01-11T07:09:06;109.07;;;36.97;;
75135;SDS011;63707;52.212;9.540;2024-01-11T07:11:31;118.13;;;36.15;;
75135;SDS011;63707;52.212;9.540;2024-01-11T07:13:58;125.75;;;38.75;;
75135;SDS011;63707;52.212;9.540;2024-01-11T07:16:24;114.05;;;38.05;;
75135;SDS011;63707;52.212;9.540;2024-01-11T07:18:49;114.85;;;33.95;;
75135;SDS011;63707;52.212;9.540;2024-01-11T07:21:19;107.50;;;37.42;;
75135;SDS011;63707;52.212;9.540;2024-01-11T07:23:48;114.35;;;39.85;;
75135;SDS011;63707;52.212;9.540;2024-01-11T07:26:13;112.57;;;36.55;;
75135;SDS011;63707;52.212;9.540;2024-01-11T07:28:39;104.40;;;35.05;;
75135;SDS011;63707;52.212;9.540;2024-01-11T07:31:06;97.72;;;32.50;;
75135;SDS011;63707;52.212;9.540;2024-01-11T07:33:31;87.43;;;30.85;;
75135;SDS011;63707;52.212;9.540;2024-01-11T07:35:57;92.30;;;29.38;;
75135;SDS011;63707;52.212;9.540;2024-01-11T07:38:22;91.47;;;31.27;;
75135;SDS011;63707;52.212;9.540;2024-01-11T07:40:48;99.53;;;32.50;;
75135;SDS011;63707;52.212;9.540;2024-01-11T07:43:13;106.03;;;33.55;;
75135;SDS011;63707;52.212;9.540;2024-01-11T07:45:39;104.13;;;32.38;;
75135;SDS011;63707;52.212;9.540;2024-01-11T07:48:06;99.55;;;31.60;;
75135;SDS011;63707;52.212;9.540;2024-01-11T07:50:31;89.40;;;31.10;;
75135;SDS011;63707;52.212;9.540;2024-01-11T07:52:57;94.95;;;32.08;;
75135;SDS011;63707;52.212;9.540;2024-01-11T07:55:22;106.32;;;33.30;;
75135;SDS011;63707;52.212;9.540;2024-01-11T07:57:49;102.03;;;34.03;;
75135;SDS011;63707;52.212;9.540;2024-01-11T08:00:15;103.10;;;32.40;;
75135;SDS011;63707;52.212;9.540;2024-01-11T08:02:41;105.38;;;33.95;;
75135;SDS011;63707;52.212;9.540;2024-01-11T08:05:08;91.97;;;32.55;;
75135;SDS011;63707;52.212;9.540;2024-01-11T08:07:34;100.18;;;34.13;;
75135;SDS011;63707;52.212;9.540;2024-01-11T08:09:59;99.03;;;33.50;;
75135;SDS011;63707;52.212;9.540;2024-01-11T08:12:25;93.07;;;31.55;;
75135;SDS011;63707;52.212;9.540;2024-01-11T08:14:50;90.53;;;33.72;;
75135;SDS011;63707;52.212;9.540;2024-01-11T08:17:16;89.10;;;32.05;;
75135;SDS011;63707;52.212;9.540;2024-01-11T08:19:41;92.13;;;31.70;;
75135;SDS011;63707;52.212;9.540;2024-01-11T08:22:09;101.78;;;32.72;;
75135;SDS011;63707;52.212;9.540;2024-01-11T08:24:35;90.45;;;31.80;;
75135;SDS011;63707;52.212;9.540;2024-01-11T08:27:01;84.07;;;27.10;;
75135;SDS011;63707;52.212;9.540;2024-01-11T08:29:27;97.40;;;31.38;;
75135;SDS011;63707;52.212;9.540;2024-01-11T08:31:53;87.00;;;31.92;;
75135;SDS011;63707;52.212;9.540;2024-01-11T08:34:19;87.95;;;31.83;;
75135;SDS011;63707;52.212;9.540;2024-01-11T08:36:45;87.25;;;32.38;;
75135;SDS011;63707;52.212;9.540;2024-01-11T08:39:12;85.82;;;32.97;;
75135;SDS011;63707;52.212;9.540;2024-01-11T08:41:38;97.80;;;32.80;;
75135;SDS011;63707;52.212;9.540;2024-01-11T08:44:04;89.03;;;32.10;;
75135;SDS011;63707;52.212;9.540;2024-01-11T08:46:32;88.10;;;33.28;;
75135;SDS011;63707;52.212;9.540;2024-01-11T08:48:58;84.85;;;33.05;;
75135;SDS011;63707;52.212;9.540;2024-01-11T08:51:24;77.43;;;31.60;;
75135;SDS011;63707;52.212;9.540;2024-01-11T08:53:50;79.57;;;31.05;;
75135;SDS011;63707;52.212;9.540;2024-01-11T08:56:17;82.75;;;31.98;;
75135;SDS011;63707;52.212;9.540;2024-01-11T08:58:43;86.85;;;33.38;;
75135;SDS011;63707;52.212;9.540;2024-01-11T09:01:08;90.45;;;35.10;;
75135;SDS011;63707;52.212;9.540;2024-01-11T09:03:34;90.65;;;34.88;;
75135;SDS011;63707;52.212;9.540;2024-01-11T09:06:00;96.80;;;34.53;;
75135;SDS011;63707;52.212;9.540;2024-01-11T09:08:25;86.22;;;33.42;;
75135;SDS011;63707;52.212;9.540;2024-01-11T09:10:51;87.18;;;33.83;;
75135;SDS011;63707;52.212;9.540;2024-01-11T09:13:19;93.25;;;34.60;;
75135;SDS011;63707;52.212;9.540;2024-01-11T09:15:45;88.80;;;34.45;;
75135;SDS011;63707;52.212;9.540;2024-01-11T09:18:10;87.95;;;34.67;;
75135;SDS011;63707;52.212;9.540;2024-01-11T09:20:36;93.18;;;34.03;;
75135;SDS011;63707;52.212;9.540;2024-01-11T09:23:01;82.88;;;31.75;;
75135;SDS011;63707;52.212;9.540;2024-01-11T09:25:28;89.57;;;33.08;;
75135;SDS011;63707;52.212;9.540;2024-01-11T09:27:54;86.13;;;33.35;;
75135;SDS011;63707;52.212;9.540;2024-01-11T09:30:21;91.00;;;33.90;;
75135;SDS011;63707;52.212;9.540;2024-01-11T09:32:46;89.53;;;34.13;;
75135;SDS011;63707;52.212;9.540;2024-01-11T09:35:12;87.28;;;32.95;;
75135;SDS011;63707;52.212;9.540;2024-01-11T09:37:38;83.15;;;33.33;;
75135;SDS011;63707;52.212;9.540;2024-01-11T09:40:04;96.28;;;33.17;;
75135;SDS011;63707;52.212;9.540;2024-01-11T09:42:35;103.05;;;36.17;;
75135;SDS011;63707;52.212;9.540;2024-01-11T09:45:01;98.18;;;32.75;;
75135;SDS011;63707;52.212;9.540;2024-01-11T09:47:28;90.28;;;31.30;;
75135;SDS011;63707;52.212;9.540;2024-01-11T09:49:54;101.03;;;35.15;;
75135;SDS011;63707;52.212;9.540;2024-01-11T09:52:20;83.97;;;33.35;;
75135;SDS011;63707;52.212;9.540;2024-01-11T09:54:47;89.68;;;32.50;;
75135;SDS011;63707;52.212;9.540;2024-01-11T09:57:13;90.15;;;33.22;;
75135;SDS011;63707;52.212;9.540;2024-01-11T09:59:41;96.05;;;32.90;;
75135;SDS011;63707;52.212;9.540;2024-01-11T10:02:08;82.75;;;31.02;;
75135;SDS011;63707;52.212;9.540;2024-01-11T10:04:37;85.78;;;32.05;;
75135;SDS011;63707;52.212;9.540;2024-01-11T10:07:03;77.70;;;28.92;;
75135;SDS011;63707;52.212;9.540;2024-01-11T10:09:31;80.15;;;29.92;;
75135;SDS011;63707;52.212;9.540;2024-01-11T10:11:56;81.40;;;30.52;;
75135;SDS011;63707;52.212;9.540;2024-01-11T10:14:22;82.20;;;29.58;;
75135;SDS011;63707;52.212;9.540;2024-01-11T10:16:48;83.25;;;29.10;;
75135;SDS011;63707;52.212;9.540;2024-01-11T10:19:13;74.05;;;28.60;;
75135;SDS011;63707;52.212;9.540;2024-01-11T10:21:42;75.55;;;25.90;;
75135;SDS011;63707;52.212;9.540;2024-01-11T10:24:08;59.67;;;23.73;;
75135;SDS011;63707;52.212;9.540;2024-01-11T10:26:34;55.53;;;21.85;;
75135;SDS011;63707;52.212;9.540;2024-01-11T10:29:01;59.00;;;23.13;;
75135;SDS011;63707;52.212;9.540;2024-01-11T10:31:28;55.25;;;21.48;;
75135;SDS011;63707;52.212;9.540;2024-01-11T10:33:53;63.80;;;25.23;;
75135;SDS011;63707;52.212;9.540;2024-01-11T10:36:19;61.80;;;24.27;;
75135;SDS011;63707;52.212;9.540;2024-01-11T10:38:46;76.97;;;28.70;;
75135;SDS011;63707;52.212;9.540;2024-01-11T10:41:13;68.22;;;26.67;;
75135;SDS011;63707;52.212;9.540;2024-01-11T10:43:43;68.53;;;26.40;;
75135;SDS011;63707;52.212;9.540;2024-01-11T10:46:09;62.65;;;26.25;;
75135;SDS011;63707;52.212;9.540;2024-01-11T10:48:37;58.40;;;23.85;;
75135;SDS011;63707;52.212;9.540;2024-01-11T10:51:07;45.42;;;18.17;;
75135;SDS011;63707;52.212;9.540;2024-01-11T10:53:40;61.75;;;23.42;;
75135;SDS011;63707;52.212;9.540;2024-01-11T10:56:12;55.05;;;19.20;;
75135;SDS011;63707;52.212;9.540;2024-01-11T10:58:39;60.42;;;22.45;;
75135;SDS011;63707;52.212;9.540;2024-01-11T11:01:05;63.28;;;23.38;;
75135;SDS011;63707;52.212;9.540;2024-01-11T11:03:32;59.90;;;23.35;;
75135;SDS011;63707;52.212;9.540;2024-01-11T11:05:59;61.75;;;23.15;;
75135;SDS011;63707;52.212;9.540;2024-01-11T11:08:25;51.85;;;20.00;;
75135;SDS011;63707;52.212;9.540;2024-01-11T11:10:54;58.35;;;20.63;;
75135;SDS011;63707;52.212;9.540;2024-01-11T11:13:23;53.38;;;20.63;;
75135;SDS011;63707;52.212;9.540;2024-01-11T11:15:48;59.50;;;21.90;;
75135;SDS011;63707;52.212;9.540;2024-01-11T11:18:15;55.65;;;21.40;;
75135;SDS011;63707;52.212;9.540;2024-01-11T11:20:41;59.03;;;22.38;;
75135;SDS011;63707;52.212;9.540;2024-01-11T11:23:07;54.40;;;20.88;;
75135;SDS011;63707;52.212;9.540;2024-01-11T11:25:37;54.72;;;22.50;;
75135;SDS011;63707;52.212;9.540;2024-01-11T11:28:05;59.70;;;23.25;;
75135;SDS011;63707;52.212;9.540;2024-01-11T11:30:33;55.85;;;22.10;;
75135;SDS011;63707;52.212;9.540;2024-01-11T11:33:15;54.83;;;20.38;;
75135;SDS011;63707;52.212;9.540;2024-01-11T11:35:42;52.80;;;19.60;;
75135;SDS011;63707;52.212;9.540;2024-01-11T11:38:08;59.65;;;21.35;;
75135;SDS011;63707;52.212;9.540;2024-01-11T11:40:41;44.80;;;16.70;;
75135;SDS011;63707;52.212;9.540;2024-01-11T11:43:10;48.95;;;17.38;;
75135;SDS011;63707;52.212;9.540;2024-01-11T11:45:37;55.03;;;20.65;;
75135;SDS011;63707;52.212;9.540;2024-01-11T11:51:06;47.35;;;17.92;;
75135;SDS011;63707;52.212;9.540;2024-01-11T11:53:32;54.55;;;19.63;;
75135;SDS011;63707;52.212;9.540;2024-01-11T11:55:58;60.55;;;22.42;;
75135;SDS011;63707;52.212;9.540;2024-01-11T11:58:24;64.03;;;23.55;;
75135;SDS011;63707;52.212;9.540;2024-01-11T12:00:51;58.05;;;22.20;;
75135;SDS011;63707;52.212;9.540;2024-01-11T12:03:18;72.15;;;24.92;;
75135;SDS011;63707;52.212;9.540;2024-01-11T12:05:43;62.38;;;24.52;;
75135;SDS011;63707;52.212;9.540;2024-01-11T12:08:09;80.10;;;27.50;;
75135;SDS011;63707;52.212;9.540;2024-01-11T12:10:35;74.90;;;26.92;;
75135;SDS011;63707;52.212;9.540;2024-01-11T12:13:01;70.13;;;25.35;;
75135;SDS011;63707;52.212;9.540;2024-01-11T12:15:27;74.57;;;26.80;;
75135;SDS011;63707;52.212;9.540;2024-01-11T12:17:58;72.47;;;29.30;;
75135;SDS011;63707;52.212;9.540;2024-01-11T12:20:24;74.10;;;27.90;;
75135;SDS011;63707;52.212;9.540;2024-01-11T12:22:49;79.25;;;28.75;;
75135;SDS011;63707;52.212;9.540;2024-01-11T12:25:15;93.03;;;30.42;;
75135;SDS011;63707;52.212;9.540;2024-01-11T12:27:42;87.88;;;32.20;;
75135;SDS011;63707;52.212;9.540;2024-01-11T12:30:08;92.35;;;31.98;;
75135;SDS011;63707;52.212;9.540;2024-01-11T12:32:36;90.25;;;31.92;;
75135;SDS011;63707;52.212;9.540;2024-01-11T12:35:03;85.72;;;30.98;;
75135;SDS011;63707;52.212;9.540;2024-01-11T12:37:30;85.50;;;30.67;;
75135;SDS011;63707;52.212;9.540;2024-01-11T12:39:57;92.35;;;33.47;;
75135;SDS011;63707;52.212;9.540;2024-01-11T12:42:23;87.30;;;33.10;;
75135;SDS011;63707;52.212;9.540;2024-01-11T12:44:49;88.38;;;33.08;;
75135;SDS011;63707;52.212;9.540;2024-01-11T12:47:15;133.57;;;45.85;;
75135;SDS011;63707;52.212;9.540;2024-01-11T12:49:42;106.90;;;35.75;;
75135;SDS011;63707;52.212;9.540;2024-01-11T12:52:16;98.40;;;34.60;;
75135;SDS011;63707;52.212;9.540;2024-01-11T12:54:41;102.95;;;37.20;;
75135;SDS011;63707;52.212;9.540;2024-01-11T12:57:10;100.57;;;36.53;;
75135;SDS011;63707;52.212;9.540;2024-01-11T12:59:36;93.75;;;36.38;;
75135;SDS011;63707;52.212;9.540;2024-01-11T13:02:02;95.53;;;36.13;;
75135;SDS011;63707;52.212;9.540;2024-01-11T13:04:27;87.35;;;33.22;;
75135;SDS011;63707;52.212;9.540;2024-01-11T13:06:53;97.15;;;35.53;;
75135;SDS011;63707;52.212;9.540;2024-01-11T13:09:20;99.05;;;36.85;;
75135;SDS011;63707;52.212;9.540;2024-01-11T13:11:45;93.32;;;33.55;;
75135;SDS011;63707;52.212;9.540;2024-01-11T13:14:11;98.93;;;33.65;;
75135;SDS011;63707;52.212;9.540;2024-01-11T13:16:43;102.32;;;36.72;;
75135;SDS011;63707;52.212;9.540;2024-01-11T13:19:10;104.53;;;36.85;;
75135;SDS011;63707;52.212;9.540;2024-01-11T13:21:36;101.07;;;35.95;;
75135;SDS011;63707;52.212;9.540;2024-01-11T13:24:02;105.80;;;35.17;;
75135;SDS011;63707;52.212;9.540;2024-01-11T13:26:29;102.40;;;35.33;;
75135;SDS011;63707;52.212;9.540;2024-01-11T13:28:54;96.60;;;33.47;;
75135;SDS011;63707;52.212;9.540;2024-01-11T13:31:20;93.60;;;32.95;;
75135;SDS011;63707;52.212;9.540;2024-01-11T13:33:46;104.43;;;36.33;;
75135;SDS011;63707;52.212;9.540;2024-01-11T13:36:11;107.55;;;35.67;;
75135;SDS011;63707;52.212;9.540;2024-01-11T13:38:37;97.32;;;34.95;;
75135;SDS011;63707;52.212;9.540;2024-01-11T13:41:02;90.47;;;33.30;;
75135;SDS011;63707;52.212;9.540;2024-01-11T13:43:31;83.20;;;29.45;;
75135;SDS011;63707;52.212;9.540;2024-01-11T13:45:57;83.65;;;28.92;;
75135;SDS011;63707;52.212;9.540;2024-01-11T13:48:22;60.35;;;23.70;;
75135;SDS011;63707;52.212;9.540;2024-01-11T13:50:48;71.50;;;24.88;;
75135;SDS011;63707;52.212;9.540;2024-01-11T13:53:13;69.55;;;24.75;;
75135;SDS011;63707;52.212;9.540;2024-01-11T13:55:39;73.43;;;25.88;;
75135;SDS011;63707;52.212;9.540;2024-01-11T13:58:04;72.57;;;26.50;;
75135;SDS011;63707;52.212;9.540;2024-01-11T14:00:31;71.32;;;26.20;;
75135;SDS011;63707;52.212;9.540;2024-01-11T14:02:57;71.53;;;26.35;;
75135;SDS011;63707;52.212;9.540;2024-01-11T14:05:23;79.95;;;27.10;;
75135;SDS011;63707;52.212;9.540;2024-01-11T14:07:48;77.32;;;27.58;;
75135;SDS011;63707;52.212;9.540;2024-01-11T14:10:19;86.50;;;30.10;;
75135;SDS011;63707;52.212;9.540;2024-01-11T14:12:45;81.25;;;27.70;;